Time;durP1;ratioP1;P1;durP2;ratioP2;P2;SDS_P1;SDS_P2;PMS_P1;PMS_P2;Temp;Humidity;BMP_temperature;BMP_pressure;BME280_temperature;BME280_humidity;BME280_pressure;Samples;Min_cycle;Max_cycle;Signal;HPM_P1;HPM_P2
2022/10/12 00:00:10;;;;;;;8.90;4.83;;;11.10;43.20;;;;;;5092406;28;20172;-45
2022/10/12 00:02:36;;;;;;;6.00;4.65;;;11.00;42.50;;;;;;5092129;28;20178;-43
2022/10/12 00:05:02;;;;;;;8.90;4.20;;;11.00;42.50;;;;;;5092069;28;20179;-44
2022/10/12 00:07:27;;;;;;;5.73;4.97;;;11.00;42.70;;;;;;5091522;28;20544;-44
2022/10/12 00:09:53;;;;;;;11.27;5.30;;;10.90;42.60;;;;;;5092017;28;20168;-45
2022/10/12 00:12:19;;;;;;;11.10;5.30;;;10.90;42.50;;;;;;5094914;28;20167;-43
2022/10/12 00:14:45;;;;;;;8.30;5.30;;;10.90;42.50;;;;;;5096460;28;20168;-42
2022/10/12 00:17:10;;;;;;;9.07;4.57;;;10.80;42.40;;;;;;5095572;28;20182;-43
2022/10/12 00:19:36;;;;;;;6.70;5.20;;;10.80;42.50;;;;;;5096071;28;20164;-45
2022/10/12 00:22:02;;;;;;;6.80;4.23;;;10.70;42.50;;;;;;5096225;28;20200;-45
2022/10/12 00:24:27;;;;;;;7.33;4.70;;;10.70;42.40;;;;;;5095951;28;20701;-44
2022/10/12 00:26:53;;;;;;;4.67;4.03;;;10.70;42.40;;;;;;5095279;28;20270;-44
2022/10/12 00:29:19;;;;;;;7.20;4.03;;;10.70;42.40;;;;;;5095854;28;20216;-46
2022/10/12 00:31:44;;;;;;;7.43;5.30;;;10.70;42.40;;;;;;5095910;28;20168;-45
2022/10/12 00:34:10;;;;;;;6.77;4.17;;;10.60;42.30;;;;;;5095838;28;20257;-45
2022/10/12 00:36:36;;;;;;;10.63;5.10;;;10.60;42.40;;;;;;5095023;28;20175;-44
2022/10/12 00:39:05;;;;;;;7.00;4.90;;;10.50;42.30;;;;;;5095870;28;20202;-45
2022/10/12 00:41:34;;;;;;;5.57;4.35;;;10.50;42.30;;;;;;5095672;28;20168;-44
2022/10/12 00:44:00;;;;;;;8.50;4.40;;;10.50;42.30;;;;;;5095566;28;20185;-45
2022/10/12 00:46:36;;;;;;;7.63;5.10;;;10.50;42.40;;;;;;5095233;28;20168;-45
2022/10/12 00:49:16;;;;;;;6.70;5.10;;;10.50;42.40;;;;;;5095312;28;20194;-43
2022/10/12 00:51:46;;;;;;;7.80;4.72;;;10.50;42.20;;;;;;5095717;28;20182;-43
2022/10/12 00:54:18;;;;;;;8.57;4.38;;;10.50;42.40;;;;;;5095730;28;20165;-42
2022/10/12 00:56:47;;;;;;;5.63;4.03;;;10.40;42.20;;;;;;5094894;28;20172;-43
2022/10/12 00:59:23;;;;;;;11.23;4.60;;;10.40;42.10;;;;;;5095160;28;20555;-44
2022/10/12 01:01:49;;;;;;;6.53;4.45;;;10.40;42.20;;;;;;5095278;28;20677;-45
2022/10/12 01:04:15;;;;;;;7.55;5.25;;;10.30;42.30;;;;;;5095387;28;20184;-45
2022/10/12 01:06:41;;;;;;;5.87;4.10;;;10.30;42.20;;;;;;5094805;28;20515;-44
2022/10/12 01:09:06;;;;;;;8.27;4.37;;;10.30;42.20;;;;;;5095168;28;20941;-44
2022/10/12 01:11:32;;;;;;;7.47;5.10;;;10.30;42.20;;;;;;5095087;28;21055;-44
2022/10/12 01:13:58;;;;;;;5.73;4.00;;;10.30;42.10;;;;;;5095394;28;20175;-45
2022/10/12 01:16:38;;;;;;;7.93;3.57;;;10.30;41.90;;;;;;5094700;28;20164;-45
2022/10/12 01:19:33;;;;;;;10.88;6.22;;;10.20;41.80;;;;;;5095198;28;20448;-45
2022/10/12 01:22:06;;;;;;;4.90;3.97;;;10.20;41.90;;;;;;5094308;28;20180;-45
2022/10/12 01:24:41;;;;;;;6.10;4.35;;;10.10;42.00;;;;;;5094017;28;20163;-46
2022/10/12 01:27:22;;;;;;;13.52;4.35;;;10.10;42.00;;;;;;5094072;28;20187;-45
2022/10/12 01:30:13;;;;;;;5.35;3.58;;;10.00;42.00;;;;;;5094735;28;20208;-45
2022/10/12 01:32:45;;;;;;;6.97;4.55;;;10.00;42.10;;;;;;5094692;28;20654;-45
2022/10/12 01:35:33;;;;;;;7.30;4.53;;;10.00;42.20;;;;;;5094582;28;20164;-45
2022/10/12 01:38:23;;;;;;;7.63;3.75;;;10.00;43.10;;;;;;5094530;28;20249;-42
2022/10/12 01:40:48;;;;;;;6.38;3.85;;;10.00;42.40;;;;;;5094686;28;20184;-45
2022/10/12 01:43:17;;;;;;;5.93;4.10;;;9.90;42.40;;;;;;5094688;28;20237;-44
2022/10/12 01:45:43;;;;;;;6.75;5.22;;;9.90;42.40;;;;;;5094025;28;20175;-44
2022/10/12 01:48:09;;;;;;;9.73;4.20;;;9.90;42.50;;;;;;5094180;28;20242;-45
2022/10/12 01:50:58;;;;;;;8.40;4.57;;;9.90;42.50;;;;;;5094595;28;20203;-46
2022/10/12 01:53:30;;;;;;;4.75;4.03;;;9.90;42.50;;;;;;5094545;28;20423;-45
2022/10/12 01:56:28;;;;;;;5.40;4.60;;;9.90;42.50;;;;;;5093594;28;20183;-45
2022/10/12 01:59:07;;;;;;;5.82;5.07;;;9.90;42.30;;;;;;5093777;28;20210;-45
2022/10/12 02:01:57;;;;;;;6.53;4.32;;;9.80;42.30;;;;;;5094403;28;20173;-45
2022/10/12 02:04:34;;;;;;;6.18;4.70;;;9.80;42.30;;;;;;5094277;28;20172;-45
2022/10/12 02:07:07;;;;;;;7.05;4.38;;;9.80;42.30;;;;;;5093581;28;20203;-45
2022/10/12 02:09:34;;;;;;;5.40;3.60;;;9.80;42.20;;;;;;5093936;28;20205;-44
2022/10/12 02:12:11;;;;;;;4.60;3.53;;;9.80;42.20;;;;;;5093858;28;20593;-44
2022/10/12 02:14:46;;;;;;;7.78;3.85;;;9.70;42.30;;;;;;5093826;28;20206;-44
2022/10/12 02:17:14;;;;;;;5.25;4.10;;;9.70;42.40;;;;;;5093047;28;20203;-45
2022/10/12 02:19:46;;;;;;;4.10;3.70;;;9.70;43.10;;;;;;5093913;28;20184;-43
2022/10/12 02:22:13;;;;;;;6.93;3.95;;;9.70;42.40;;;;;;5093771;28;20171;-45
2022/10/12 02:24:42;;;;;;;5.43;3.75;;;9.60;42.50;;;;;;5093924;28;20175;-45
2022/10/12 02:27:10;;;;;;;6.10;3.80;;;9.60;42.50;;;;;;5092857;28;20194;-44
2022/10/12 02:29:39;;;;;;;5.45;3.70;;;9.60;42.60;;;;;;5093882;28;20164;-45
2022/10/12 02:32:19;;;;;;;5.32;4.00;;;9.60;42.50;;;;;;5093519;28;20177;-44
2022/10/12 02:35:08;;;;;;;5.50;4.82;;;9.60;42.40;;;;;;5093251;28;20168;-44
2022/10/12 02:37:39;;;;;;;7.65;4.03;;;9.50;42.50;;;;;;5092720;28;20196;-45
2022/10/12 02:40:16;;;;;;;5.78;4.20;;;9.50;42.50;;;;;;5093376;28;20172;-45
2022/10/12 02:42:49;;;;;;;9.05;4.43;;;9.50;42.60;;;;;;5093356;28;20172;-45
2022/10/12 02:45:17;;;;;;;5.13;3.60;;;9.40;42.30;;;;;;5093385;28;20554;-44
2022/10/12 02:47:46;;;;;;;8.82;4.05;;;9.40;42.30;;;;;;5092484;28;20207;-44
2022/10/12 02:50:14;;;;;;;7.38;4.10;;;9.40;42.50;;;;;;5093103;28;20176;-45
2022/10/12 02:52:40;;;;;;;5.38;3.40;;;9.40;43.10;;;;;;5093101;28;20771;-45
2022/10/12 02:55:06;;;;;;;7.57;4.15;;;9.30;43.00;;;;;;5093583;28;20168;-43
2022/10/12 02:57:31;;;;;;;8.68;4.20;;;9.20;42.40;;;;;;5092683;28;20202;-43
2022/10/12 02:59:57;;;;;;;7.53;3.70;;;9.20;43.40;;;;;;5093021;28;20538;-44
2022/10/12 03:02:23;;;;;;;8.80;3.90;;;9.10;42.90;;;;;;5092830;28;20176;-44
2022/10/12 03:04:49;;;;;;;7.40;4.03;;;9.20;42.90;;;;;;5092905;28;20172;-45
2022/10/12 03:07:14;;;;;;;5.80;3.57;;;9.10;42.90;;;;;;5092211;28;20199;-42
2022/10/12 03:09:40;;;;;;;5.70;4.03;;;9.20;42.80;;;;;;5092870;28;20172;-43
2022/10/12 03:12:06;;;;;;;4.87;3.70;;;9.20;42.60;;;;;;5092805;28;20233;-44
2022/10/12 03:14:33;;;;;;;4.90;3.63;;;9.20;42.70;;;;;;5092861;28;20170;-43
2022/10/12 03:17:00;;;;;;;7.03;3.83;;;9.20;42.60;;;;;;5091803;28;20206;-43
2022/10/12 03:19:25;;;;;;;6.65;3.17;;;9.20;42.60;;;;;;5092696;28;20210;-44
2022/10/12 03:21:51;;;;;;;6.10;4.20;;;9.10;42.50;;;;;;5092899;28;20198;-45
2022/10/12 03:24:17;;;;;;;8.47;4.27;;;9.10;42.50;;;;;;5092832;28;20274;-44
2022/10/12 03:26:42;;;;;;;6.37;4.10;;;9.10;42.50;;;;;;5091799;28;20637;-42
2022/10/12 03:29:08;;;;;;;7.30;4.60;;;9.10;42.60;;;;;;5092410;28;20243;-44
2022/10/12 03:31:34;;;;;;;5.20;3.80;;;9.10;42.50;;;;;;5092647;28;20262;-43
2022/10/12 03:34:00;;;;;;;7.73;3.63;;;9.10;42.50;;;;;;5092756;28;20413;-44
2022/10/12 03:36:26;;;;;;;9.00;4.03;;;9.10;42.60;;;;;;5092171;28;20172;-45
2022/10/12 03:38:51;;;;;;;7.63;3.43;;;9.10;42.90;;;;;;5092331;28;20523;-45
2022/10/12 03:41:17;;;;;;;4.80;3.20;;;9.10;42.90;;;;;;5092399;28;20412;-43
2022/10/12 03:43:43;;;;;;;7.07;3.77;;;9.10;42.90;;;;;;5092702;28;20227;-41
2022/10/12 03:46:08;;;;;;;8.87;3.77;;;9.10;42.90;;;;;;5090917;28;20202;-45
2022/10/12 03:48:34;;;;;;;5.27;4.13;;;9.10;42.80;;;;;;5092239;28;20691;-44
2022/10/12 03:51:00;;;;;;;4.40;4.00;;;9.10;42.90;;;;;;5092232;28;20178;-44
2022/10/12 03:53:25;;;;;;;10.80;3.70;;;9.00;42.80;;;;;;5092547;28;20171;-43
2022/10/12 03:55:51;;;;;;;7.63;3.80;;;9.00;42.60;;;;;;5091640;28;20842;-43
2022/10/12 03:58:17;;;;;;;7.50;5.00;;;9.00;42.60;;;;;;5092486;28;20229;-44
2022/10/12 04:00:43;;;;;;;10.93;5.17;;;9.00;42.50;;;;;;5092529;28;20565;-43
2022/10/12 04:03:09;;;;;;;12.18;4.07;;;8.90;42.50;;;;;;5092457;28;20410;-43
2022/10/12 04:05:35;;;;;;;6.37;3.93;;;8.90;42.60;;;;;;5091741;28;20187;-44
2022/10/12 04:08:01;;;;;;;6.97;3.57;;;8.90;42.70;;;;;;5091601;28;20259;-43
2022/10/12 04:10:27;;;;;;;6.38;4.00;;;8.90;42.70;;;;;;5092286;28;20402;-43
2022/10/12 04:12:52;;;;;;;10.33;4.13;;;8.80;42.60;;;;;;5092046;28;20182;-42
2022/10/12 04:15:18;;;;;;;6.37;4.20;;;8.90;42.60;;;;;;5092127;28;20179;-45
2022/10/12 04:17:44;;;;;;;3.65;3.35;;;8.80;42.50;;;;;;5091174;28;20578;-45
2022/10/12 04:20:11;;;;;;;10.33;4.90;;;8.80;42.50;;;;;;5091934;28;20191;-42
2022/10/12 04:22:37;;;;;;;5.53;3.85;;;8.80;42.50;;;;;;5092078;28;20176;-44
2022/10/12 04:25:03;;;;;;;7.68;4.50;;;8.80;42.60;;;;;;5092011;28;20187;-44
2022/10/12 04:27:29;;;;;;;11.05;4.30;;;8.80;42.60;;;;;;5091408;28;20204;-44
2022/10/12 04:29:55;;;;;;;7.40;3.83;;;8.70;42.60;;;;;;5091995;28;20533;-44
2022/10/12 04:32:20;;;;;;;10.97;3.77;;;8.70;42.60;;;;;;5091803;28;20175;-43
2022/10/12 04:34:46;;;;;;;8.40;5.03;;;8.60;42.60;;;;;;5092009;28;20171;-43
2022/10/12 04:37:12;;;;;;;7.30;4.20;;;8.60;42.60;;;;;;5091165;28;20181;-43
2022/10/12 04:39:37;;;;;;;7.13;5.03;;;8.60;42.50;;;;;;5091841;28;20196;-42
2022/10/12 04:42:05;;;;;;;9.10;4.40;;;8.60;42.60;;;;;;5091747;28;20646;-43
2022/10/12 04:44:32;;;;;;;13.05;3.90;;;8.60;42.60;;;;;;5091558;28;20178;-46
2022/10/12 04:46:58;;;;;;;15.65;5.20;;;8.60;42.70;;;;;;5091206;28;20205;-43
2022/10/12 04:49:24;;;;;;;12.82;4.88;;;8.60;42.70;;;;;;5091711;28;20250;-42
2022/10/12 04:51:50;;;;;;;9.47;4.90;;;8.60;42.80;;;;;;5091646;28;20258;-44
2022/10/12 04:54:16;;;;;;;9.80;5.20;;;8.60;42.80;;;;;;5091723;28;20172;-43
2022/10/12 04:56:41;;;;;;;9.33;4.67;;;8.60;42.70;;;;;;5089844;28;20175;-45
2022/10/12 04:59:07;;;;;;;24.60;6.67;;;8.60;42.90;;;;;;5095351;28;20239;-45
2022/10/12 05:01:33;;;;;;;11.53;4.60;;;8.60;42.70;;;;;;5095429;28;20413;-43
2022/10/12 05:04:01;;;;;;;12.07;5.43;;;8.60;42.80;;;;;;5095309;28;20174;-43
2022/10/12 05:06:27;;;;;;;8.63;4.82;;;8.50;43.00;;;;;;5094835;28;20171;-41
2022/10/12 05:08:53;;;;;;;12.23;5.63;;;8.50;42.90;;;;;;5094913;28;20885;-42
2022/10/12 05:11:19;;;;;;;11.37;5.50;;;8.50;42.90;;;;;;5095208;28;20402;-44
2022/10/12 05:13:45;;;;;;;12.60;6.07;;;8.50;43.00;;;;;;5094923;28;20164;-42
2022/10/12 05:16:10;;;;;;;9.67;6.37;;;8.60;43.00;;;;;;5094480;28;20566;-45
2022/10/12 05:18:36;;;;;;;9.47;6.60;;;8.60;43.10;;;;;;5094641;28;20204;-43
2022/10/12 05:21:02;;;;;;;15.47;7.43;;;8.60;43.00;;;;;;5094939;28;20166;-45
2022/10/12 05:23:28;;;;;;;11.67;5.83;;;8.60;43.10;;;;;;5094938;28;20172;-42
2022/10/12 05:25:55;;;;;;;6.20;5.20;;;8.60;42.90;;;;;;5094472;28;20417;-43
2022/10/12 05:28:21;;;;;;;13.55;5.63;;;8.60;42.90;;;;;;5094469;28;20205;-44
2022/10/12 05:30:51;;;;;;;20.70;6.93;;;8.60;42.90;;;;;;5094730;28;20713;-45
2022/10/12 05:33:17;;;;;;;13.70;7.47;;;8.60;42.90;;;;;;5094839;28;20187;-45
2022/10/12 05:35:43;;;;;;;12.10;7.10;;;8.60;43.10;;;;;;5094242;28;20206;-43
2022/10/12 05:38:09;;;;;;;12.02;6.38;;;8.60;43.00;;;;;;5094753;28;20260;-43
2022/10/12 05:40:35;;;;;;;10.88;7.47;;;8.60;43.00;;;;;;5094463;28;20190;-45
2022/10/12 05:43:01;;;;;;;12.77;6.37;;;8.60;43.00;;;;;;5094325;28;20172;-44
2022/10/12 05:45:27;;;;;;;15.87;7.27;;;8.60;43.00;;;;;;5094212;28;20175;-45
2022/10/12 05:47:52;;;;;;;25.07;6.57;;;8.60;43.00;;;;;;5093705;28;20195;-46
2022/10/12 05:50:18;;;;;;;14.10;7.67;;;8.70;43.80;;;;;;5094436;28;20639;-42
2022/10/12 05:52:44;;;;;;;19.87;7.00;;;8.70;43.00;;;;;;5094210;28;20535;-43
2022/10/12 05:55:10;;;;;;;11.17;6.30;;;8.70;43.00;;;;;;5094181;28;20285;-44
2022/10/12 05:57:36;;;;;;;14.80;6.40;;;8.70;43.20;;;;;;5093418;28;20428;-42
2022/10/12 06:00:04;;;;;;;9.20;5.43;;;8.80;43.10;;;;;;5094264;28;20740;-43
2022/10/12 06:02:30;;;;;;;10.55;5.75;;;8.80;43.20;;;;;;5094008;28;20175;-43
2022/10/12 06:04:56;;;;;;;6.47;5.20;;;8.80;43.20;;;;;;5093956;28;20183;-44
2022/10/12 06:07:21;;;;;;;8.30;4.10;;;8.90;43.40;;;;;;5093286;28;20210;-44
2022/10/12 06:09:47;;;;;;;8.43;4.73;;;9.00;43.50;;;;;;5093174;28;20460;-45
2022/10/12 06:12:14;;;;;;;11.68;5.30;;;9.00;43.40;;;;;;5093999;28;20183;-44
2022/10/12 06:14:40;;;;;;;6.70;4.35;;;9.10;43.50;;;;;;5094018;28;20193;-43
2022/10/12 06:17:06;;;;;;;8.87;4.33;;;9.20;43.40;;;;;;5093087;28;20178;-42
2022/10/12 06:19:32;;;;;;;5.80;4.50;;;9.40;43.40;;;;;;5093688;28;20245;-44
2022/10/12 06:21:58;;;;;;;7.17;5.10;;;9.40;43.30;;;;;;5093754;28;20183;-43
2022/10/12 06:24:24;;;;;;;8.10;5.00;;;9.50;43.50;;;;;;5093646;28;20401;-45
2022/10/12 06:26:49;;;;;;;11.50;4.30;;;9.60;43.50;;;;;;5093116;28;20439;-45
2022/10/12 06:29:16;;;;;;;12.10;4.67;;;9.70;43.50;;;;;;5093603;28;20217;-43
2022/10/12 06:31:42;;;;;;;13.23;5.30;;;9.80;43.50;;;;;;5093424;28;20207;-44
2022/10/12 06:34:07;;;;;;;16.40;5.90;;;10.00;43.40;;;;;;5093528;28;20203;-46
2022/10/12 06:36:33;;;;;;;7.00;4.73;;;10.10;43.60;;;;;;5092958;28;20168;-42
2022/10/12 06:38:59;;;;;;;10.53;5.23;;;10.20;43.40;;;;;;5093334;28;20218;-43
2022/10/12 06:41:25;;;;;;;7.33;5.10;;;10.40;43.80;;;;;;5093247;28;20179;-44
2022/10/12 06:43:50;;;;;;;10.10;5.37;;;10.50;43.70;;;;;;5093288;28;20245;-43
2022/10/12 06:46:16;;;;;;;11.50;5.37;;;10.70;43.80;;;;;;5092810;28;20547;-43
2022/10/12 06:48:42;;;;;;;11.97;7.87;;;10.80;43.60;;;;;;5093001;28;20211;-45
2022/10/12 06:51:08;;;;;;;7.83;5.03;;;11.00;43.70;;;;;;5093196;28;20172;-44
2022/10/12 06:53:34;;;;;;;12.93;6.23;;;11.20;43.60;;;;;;5092968;28;20183;-44
2022/10/12 06:56:08;;;;;;;6.72;5.47;;;11.40;43.80;;;;;;5092670;28;20179;-44
2022/10/12 06:58:34;;;;;;;14.02;6.03;;;11.60;43.70;;;;;;5092902;28;20262;-43
2022/10/12 07:01:04;;;;;;;7.30;5.40;;;11.70;43.50;;;;;;5093020;28;20195;-42
2022/10/12 07:03:30;;;;;;;8.57;6.65;;;11.90;43.40;;;;;;5093004;28;20218;-46
2022/10/12 07:06:08;;;;;;;8.00;5.90;;;12.10;43.30;;;;;;5092359;28;20644;-46
2022/10/12 07:08:34;;;;;;;8.52;6.32;;;12.20;43.10;;;;;;5092711;28;20904;-46
2022/10/12 07:11:05;;;;;;;11.45;6.20;;;12.40;43.00;;;;;;5091469;28;20188;-46
2022/10/12 07:13:32;;;;;;;9.95;5.78;;;12.60;42.80;;;;;;5092834;28;20151;-45
2022/10/12 07:15:58;;;;;;;10.50;6.40;;;12.70;42.60;;;;;;5092259;28;20207;-45
2022/10/12 07:18:24;;;;;;;10.90;6.10;;;13.00;42.40;;;;;;5092362;28;20242;-43
2022/10/12 07:20:50;;;;;;;10.85;6.00;;;13.10;42.40;;;;;;5091815;28;20398;-44
2022/10/12 07:23:17;;;;;;;10.30;5.90;;;13.30;42.30;;;;;;5092643;28;20167;-42
2022/10/12 07:25:53;;;;;;;8.85;5.65;;;13.30;41.80;;;;;;5091901;28;20171;-43
2022/10/12 07:28:19;;;;;;;11.93;5.63;;;13.40;41.70;;;;;;5092372;28;20237;-43
2022/10/12 07:30:45;;;;;;;8.00;5.60;;;13.50;42.00;;;;;;5092690;28;20221;-46
2022/10/12 07:33:11;;;;;;;9.00;4.80;;;13.60;41.90;;;;;;5092374;28;20196;-45
2022/10/12 07:35:37;;;;;;;9.87;5.87;;;13.80;41.70;;;;;;5091812;28;20172;-45
2022/10/12 07:38:03;;;;;;;11.53;5.47;;;13.90;41.90;;;;;;5092263;28;20437;-45
2022/10/12 07:40:30;;;;;;;11.38;4.63;;;14.10;41.00;;;;;;5092147;28;20172;-43
2022/10/12 07:42:56;;;;;;;6.78;4.75;;;14.20;41.10;;;;;;5092356;28;20305;-44
2022/10/12 07:45:22;;;;;;;6.93;5.10;;;14.30;41.00;;;;;;5092281;28;20171;-44
2022/10/12 07:47:47;;;;;;;9.60;6.00;;;14.50;41.10;;;;;;5091752;28;20207;-46
2022/10/12 07:50:13;;;;;;;14.30;4.70;;;14.60;40.20;;;;;;5092526;28;20508;-46
2022/10/12 07:52:40;;;;;;;7.50;4.50;;;14.80;39.80;;;;;;5092415;28;20179;-44
2022/10/12 07:55:06;;;;;;;11.10;4.90;;;14.90;40.10;;;;;;5092066;28;20409;-46
2022/10/12 07:57:32;;;;;;;6.57;4.35;;;15.10;39.60;;;;;;5091663;28;20288;-45
2022/10/12 07:59:58;;;;;;;5.75;3.90;;;15.30;39.20;;;;;;5092122;28;20175;-46
2022/10/12 08:02:24;;;;;;;12.17;5.10;;;15.50;39.20;;;;;;5091927;28;20539;-44
2022/10/12 08:04:50;;;;;;;6.10;4.10;;;15.70;38.80;;;;;;5092389;28;20164;-45
2022/10/12 08:07:16;;;;;;;9.88;3.85;;;15.80;38.60;;;;;;5091430;28;20223;-45
2022/10/12 08:09:42;;;;;;;7.67;4.13;;;16.00;38.60;;;;;;5092047;28;20233;-45
2022/10/12 08:12:09;;;;;;;8.93;5.23;;;16.10;38.50;;;;;;5092281;28;20409;-45
2022/10/12 08:14:35;;;;;;;9.43;4.75;;;16.20;37.90;;;;;;5092059;28;20651;-42
2022/10/12 08:17:01;;;;;;;5.33;4.03;;;16.30;38.30;;;;;;5091154;28;20218;-44
2022/10/12 08:19:27;;;;;;;7.20;3.87;;;16.40;37.60;;;;;;5091785;28;20410;-45
2022/10/12 08:21:52;;;;;;;7.53;3.97;;;16.40;37.40;;;;;;5092138;28;20470;-47
2022/10/12 08:24:18;;;;;;;6.63;5.13;;;16.40;38.00;;;;;;5091789;28;20738;-46
2022/10/12 08:26:44;;;;;;;8.03;3.77;;;16.50;37.80;;;;;;5091254;28;20175;-46
2022/10/12 08:29:10;;;;;;;6.13;4.63;;;16.60;37.00;;;;;;5091954;28;20465;-45
2022/10/12 08:31:36;;;;;;;7.60;4.33;;;16.60;36.80;;;;;;5091826;28;20183;-46
2022/10/12 08:34:02;;;;;;;9.60;5.50;;;16.60;37.00;;;;;;5095999;28;20254;-45
2022/10/12 08:36:28;;;;;;;6.00;3.92;;;16.60;37.20;;;;;;5095340;28;20413;-45
2022/10/12 08:38:54;;;;;;;6.17;3.70;;;16.80;37.40;;;;;;5095561;28;20195;-46
2022/10/12 08:41:38;;;;;;;11.02;4.53;;;17.00;37.40;;;;;;5095830;28;20176;-45
2022/10/12 08:44:14;;;;;;;7.35;4.43;;;17.20;36.10;;;;;;5095625;28;20161;-45
2022/10/12 08:46:41;;;;;;;7.25;5.30;;;17.30;36.40;;;;;;5095095;28;20490;-45
2022/10/12 08:49:15;;;;;;;6.93;4.47;;;17.50;37.00;;;;;;5095285;28;20212;-45
2022/10/12 08:51:56;;;;;;;6.85;4.00;;;17.70;36.80;;;;;;5095767;28;20182;-47
2022/10/12 08:54:27;;;;;;;4.95;3.90;;;18.10;36.50;;;;;;5095322;28;20164;-46
2022/10/12 08:56:54;;;;;;;9.45;5.40;;;18.30;35.70;;;;;;5095000;28;20187;-48
2022/10/12 08:59:20;;;;;;;8.52;4.95;;;18.50;35.80;;;;;;5095535;28;20233;-47
2022/10/12 09:02:30;;;;;;;8.43;4.90;;;18.50;34.50;;;;;;5095253;28;20240;-46
2022/10/12 09:05:05;;;;;;;10.07;4.00;;;18.50;35.30;;;;;;5095153;28;20390;-47
2022/10/12 09:07:34;;;;;;;13.57;4.63;;;18.50;34.80;;;;;;5094083;28;20218;-48
2022/10/12 09:10:05;;;;;;;7.32;4.40;;;18.40;34.70;;;;;;5095277;28;20255;-47
2022/10/12 09:12:34;;;;;;;8.00;4.47;;;18.40;35.40;;;;;;5095262;28;20183;-45
2022/10/12 09:15:04;;;;;;;10.65;5.30;;;18.50;35.90;;;;;;5094989;28;20169;-44
2022/10/12 09:17:37;;;;;;;6.30;3.85;;;18.70;35.30;;;;;;5094157;28;20260;-45
2022/10/12 09:20:34;;;;;;;8.15;4.88;;;18.80;35.50;;;;;;5095152;28;20180;-45
2022/10/12 09:23:16;;;;;;;10.20;4.05;;;18.80;34.00;;;;;;5095170;28;20164;-46
2022/10/12 09:25:42;;;;;;;7.85;3.60;;;18.70;33.80;;;;;;5094077;28;20171;-44
2022/10/12 09:28:28;;;;;;;9.48;4.40;;;18.70;35.40;;;;;;5094651;28;20280;-45
2022/10/12 09:31:40;;;;;;;13.52;4.78;;;18.90;36.20;;;;;;5095013;28;20520;-44
2022/10/12 09:34:07;;;;;;;10.98;4.63;;;18.90;34.90;;;;;;5071864;28;20806;-45
2022/10/12 09:36:36;;;;;;;9.07;4.50;;;19.00;35.00;;;;;;5071554;28;20215;-45
2022/10/12 09:39:06;;;;;;;7.40;3.65;;;19.10;33.80;;;;;;5071797;28;20595;-44
2022/10/12 09:41:41;;;;;;;8.32;4.38;;;19.20;34.90;;;;;;5071905;28;20180;-45
2022/10/12 09:44:31;;;;;;;9.25;5.50;;;19.40;35.30;;;;;;5070883;28;20644;-44
2022/10/12 09:47:03;;;;;;;7.40;4.30;;;19.50;34.20;;;;;;5070906;28;20184;-44
2022/10/12 09:49:43;;;;;;;7.25;4.07;;;19.50;33.90;;;;;;5071765;28;20177;-44
2022/10/12 09:52:11;;;;;;;7.30;4.75;;;19.60;34.50;;;;;;5071807;28;20181;-45
2022/10/12 09:54:44;;;;;;;6.93;3.40;;;19.70;33.90;;;;;;5072815;28;20212;-44
2022/10/12 09:57:17;;;;;;;5.22;3.40;;;19.80;33.50;;;;;;5071814;28;20233;-44
2022/10/12 09:59:44;;;;;;;6.80;3.15;;;19.90;33.90;;;;;;5073408;28;20666;-44
2022/10/12 10:02:10;;;;;;;4.75;3.30;;;20.00;34.30;;;;;;5072683;28;20178;-45
2022/10/12 10:04:39;;;;;;;7.25;3.08;;;20.10;34.30;;;;;;5080944;28;20644;-44
2022/10/12 10:07:13;;;;;;;17.15;4.10;;;20.30;33.90;;;;;;5093752;28;20172;-45
2022/10/12 10:09:39;;;;;;;7.85;3.92;;;20.30;33.10;;;;;;5094708;28;20168;-45
2022/10/12 10:12:26;;;;;;;7.63;3.50;;;20.30;31.90;;;;;;5093992;28;20206;-44
2022/10/12 10:14:55;;;;;;;8.88;3.05;;;20.40;32.60;;;;;;5094020;28;20398;-45
2022/10/12 10:17:33;;;;;;;9.98;3.25;;;20.50;33.60;;;;;;5093062;28;20211;-45
2022/10/12 10:20:03;;;;;;;13.02;3.28;;;20.60;32.40;;;;;;5094023;28;20175;-44
2022/10/12 10:22:29;;;;;;;11.15;4.57;;;20.80;32.60;;;;;;5094005;28;20172;-45
2022/10/12 10:24:58;;;;;;;5.72;3.00;;;21.00;31.50;;;;;;5093708;28;20639;-44
2022/10/12 10:27:44;;;;;;;8.13;3.40;;;21.00;29.90;;;;;;5092772;28;20207;-45
2022/10/12 10:30:20;;;;;;;6.47;3.50;;;21.10;29.90;;;;;;5093367;28;20168;-44
2022/10/12 10:32:47;;;;;;;9.00;4.05;;;21.20;31.60;;;;;;5093776;28;20171;-45
2022/10/12 10:35:12;;;;;;;6.70;4.10;;;21.20;31.30;;;;;;5093719;28;20535;-44
2022/10/12 10:37:51;;;;;;;4.17;2.90;;;21.30;30.10;;;;;;5092795;28;20188;-44
2022/10/12 10:40:24;;;;;;;6.05;3.60;;;21.30;28.90;;;;;;5093698;28;20172;-45
2022/10/12 10:43:27;;;;;;;5.80;3.28;;;21.30;30.20;;;;;;5093594;28;20175;-44
2022/10/12 10:46:00;;;;;;;3.78;2.90;;;21.40;30.20;;;;;;5092877;28;20571;-44
2022/10/12 10:48:31;;;;;;;11.57;3.75;;;21.40;30.10;;;;;;5093127;28;20214;-45
2022/10/12 10:51:04;;;;;;;6.45;3.58;;;21.40;28.90;;;;;;5093271;28;20206;-45
2022/10/12 10:53:42;;;;;;;4.07;3.17;;;21.50;29.30;;;;;;5093350;28;20186;-45
2022/10/12 10:56:24;;;;;;;5.43;3.85;;;21.50;28.60;;;;;;5092277;28;20190;-45
2022/10/12 10:58:54;;;;;;;9.88;3.40;;;21.50;29.60;;;;;;5090815;28;20196;-45
2022/10/12 11:01:38;;;;;;;6.45;3.55;;;21.70;29.70;;;;;;5092982;28;20242;-45
2022/10/12 11:04:16;;;;;;;20.85;13.27;;;21.90;27.40;;;;;;5092886;28;20180;-45
2022/10/12 11:06:46;;;;;;;8.32;3.78;;;22.00;26.70;;;;;;5092303;28;20166;-45
2022/10/12 11:09:16;;;;;;;6.57;2.50;;;22.10;27.90;;;;;;5092694;28;20207;-45
2022/10/12 11:11:44;;;;;;;10.17;3.70;;;22.50;26.60;;;;;;5092761;28;20277;-45
2022/10/12 11:14:18;;;;;;;8.63;4.17;;;22.90;27.00;;;;;;5092934;28;20402;-44
2022/10/12 11:16:54;;;;;;;3.33;2.93;;;23.30;26.80;;;;;;5092108;28;20397;-45
2022/10/12 11:20:01;;;;;;;7.13;3.33;;;23.60;24.30;;;;;;5092756;28;20528;-45
2022/10/12 11:22:38;;;;;;;3.03;2.47;;;23.80;25.50;;;;;;5089355;28;20769;-45
2022/10/12 11:25:11;;;;;;;7.60;3.40;;;24.20;25.30;;;;;;5092583;28;20421;-45
2022/10/12 11:27:39;;;;;;;6.30;3.50;;;24.40;25.90;;;;;;5091844;28;20450;-44
2022/10/12 11:30:20;;;;;;;6.53;3.03;;;24.60;26.60;;;;;;5092498;28;20394;-47
2022/10/12 11:32:59;;;;;;;18.03;4.47;;;24.70;26.10;;;;;;5092696;28;20386;-48
2022/10/12 11:35:27;;;;;;;7.67;3.80;;;24.60;26.10;;;;;;5092438;28;20402;-48
2022/10/12 11:38:04;;;;;;;7.80;3.50;;;24.50;25.10;;;;;;5091936;28;20426;-45
2022/10/12 11:40:32;;;;;;;5.03;2.80;;;24.40;25.60;;;;;;5092640;28;20386;-46
2022/10/12 11:43:04;;;;;;;7.47;2.73;;;24.30;24.10;;;;;;5092340;28;20797;-47
2022/10/12 11:45:35;;;;;;;5.97;3.93;;;24.20;23.70;;;;;;5091849;28;20763;-49
2022/10/12 11:48:12;;;;;;;9.70;3.40;;;24.20;25.20;;;;;;5092382;28;20457;-45
2022/10/12 11:50:41;;;;;;;8.83;3.67;;;24.50;24.50;;;;;;5092512;28;20382;-44
2022/10/12 11:53:30;;;;;;;6.80;3.20;;;24.90;25.00;;;;;;5092209;28;20905;-44
2022/10/12 11:56:04;;;;;;;4.50;3.43;;;25.40;24.10;;;;;;5091389;28;20421;-45
2022/10/12 11:58:35;;;;;;;8.60;3.50;;;25.90;23.10;;;;;;5092128;28;20424;-47
2022/10/12 12:01:07;;;;;;;8.10;3.13;;;26.20;22.30;;;;;;5092141;28;20924;-43
2022/10/12 12:03:42;;;;;;;9.50;4.30;;;26.50;23.00;;;;;;5092066;28;20402;-46
2022/10/12 12:06:29;;;;;;;6.90;3.10;;;26.70;21.80;;;;;;5091710;28;20412;-46
2022/10/12 12:09:01;;;;;;;8.60;3.97;;;26.70;22.80;;;;;;5095812;28;20462;-46
2022/10/12 12:11:29;;;;;;;9.63;3.80;;;26.60;21.10;;;;;;5096363;28;20957;-45
2022/10/12 12:14:19;;;;;;;3.83;2.67;;;26.30;22.90;;;;;;5096315;28;20765;-44
2022/10/12 12:16:49;;;;;;;3.80;3.30;;;26.10;22.10;;;;;;5095469;28;20400;-43
2022/10/12 12:19:40;;;;;;;5.13;2.57;;;25.80;22.20;;;;;;5095865;28;20446;-44
2022/10/12 12:22:25;;;;;;;12.07;8.17;;;25.60;24.00;;;;;;5096382;28;20398;-42
2022/10/12 12:25:09;;;;;;;8.90;3.70;;;25.10;23.50;;;;;;5095998;28;20416;-48
2022/10/12 12:27:41;;;;;;;8.33;3.23;;;25.00;24.50;;;;;;5095465;28;20449;-46
2022/10/12 12:30:21;;;;;;;6.13;3.33;;;25.00;23.70;;;;;;5096253;28;20769;-45
2022/10/12 12:33:14;;;;;;;11.80;3.67;;;25.10;24.60;;;;;;5095860;28;20438;-45
2022/10/12 12:36:01;;;;;;;6.53;2.90;;;25.30;24.80;;;;;;5095364;28;20802;-43
2022/10/12 12:38:33;;;;;;;8.10;2.73;;;25.50;25.30;;;;;;5095792;28;20425;-45
2022/10/12 12:41:09;;;;;;;4.57;3.03;;;25.70;22.90;;;;;;5095901;28;20389;-44
2022/10/12 12:43:48;;;;;;;7.80;2.97;;;25.80;23.30;;;;;;5095713;28;20409;-45
2022/10/12 12:46:15;;;;;;;4.67;2.93;;;25.90;22.70;;;;;;5095123;28;20402;-44
2022/10/12 12:48:56;;;;;;;6.33;2.80;;;25.90;24.00;;;;;;5095468;28;21016;-44
2022/10/12 12:51:35;;;;;;;6.83;3.50;;;26.40;22.80;;;;;;5095590;28;20406;-44
2022/10/12 12:54:19;;;;;;;8.60;2.67;;;26.50;21.60;;;;;;5095666;28;20786;-45
2022/10/12 12:57:23;;;;;;;8.10;3.47;;;26.60;21.40;;;;;;5094798;28;20398;-45
2022/10/12 13:00:06;;;;;;;9.83;3.30;;;26.60;23.40;;;;;;5095631;28;20795;-44
2022/10/12 13:03:09;;;;;;;6.27;2.37;;;26.60;23.20;;;;;;5095099;28;20406;-45
2022/10/12 13:06:06;;;;;;;6.50;2.97;;;26.40;21.30;;;;;;5094705;28;20398;-44